Time;durP1;ratioP1;P1;durP2;ratioP2;P2;SDS_P1;SDS_P2;PMS_P1;PMS_P2;Temp;Humidity;BMP_temperature;BMP_pressure;BME280_temperature;BME280_humidity;BME280_pressure;Samples;Min_cycle;Max_cycle;Signal;HPM_P1;HPM_P2
2023/07/20 00:01:48;;;;;;;0.90;0.50;;;21.50;1.00;;;;;;5076487;28;20520;-53
2023/07/20 00:04:15;;;;;;;0.60;0.40;;;21.50;1.00;;;;;;5076517;28;20843;-55
2023/07/20 00:06:43;;;;;;;1.40;0.40;;;21.40;1.00;;;;;;5076862;28;20420;-53
2023/07/20 00:09:10;;;;;;;0.90;0.40;;;21.40;1.00;;;;;;5077393;28;20830;-55
2023/07/20 00:11:38;;;;;;;1.10;0.40;;;21.30;1.00;;;;;;5076027;28;20707;-53
2023/07/20 00:14:05;;;;;;;1.40;0.40;;;21.30;1.00;;;;;;5076561;28;20463;-53
2023/07/20 00:16:33;;;;;;;0.75;0.47;;;21.30;1.00;;;;;;5075641;28;20761;-55
2023/07/20 00:19:01;;;;;;;0.82;0.40;;;21.20;1.00;;;;;;5075861;28;20897;-54
2023/07/20 00:21:28;;;;;;;0.75;0.40;;;21.20;1.00;;;;;;5075523;28;20554;-50
2023/07/20 00:23:55;;;;;;;0.80;0.40;;;21.20;1.00;;;;;;5075825;28;20432;-50
2023/07/20 00:26:22;;;;;;;0.98;0.40;;;21.10;1.00;;;;;;5075348;28;20423;-54
2023/07/20 00:28:52;;;;;;;0.70;0.40;;;21.00;1.00;;;;;;5075126;28;20912;-54
2023/07/20 00:31:19;;;;;;;0.67;0.50;;;21.00;1.00;;;;;;5075014;28;20514;-55
2023/07/20 00:33:46;;;;;;;0.70;0.40;;;21.00;1.00;;;;;;5074853;28;20477;-52
2023/07/20 00:36:15;;;;;;;0.68;0.40;;;21.00;1.00;;;;;;5075161;28;20423;-52
2023/07/20 00:38:43;;;;;;;0.63;0.40;;;20.90;1.00;;;;;;5075162;28;20497;-50
2023/07/20 00:41:10;;;;;;;0.70;0.40;;;20.90;1.00;;;;;;5074286;28;20462;-53
2023/07/20 00:43:37;;;;;;;0.70;0.40;;;20.80;1.00;;;;;;5075444;28;20431;-52
2023/07/20 00:46:05;;;;;;;0.60;0.40;;;20.80;1.00;;;;;;5075757;28;20439;-53
2023/07/20 00:48:32;;;;;;;0.70;0.40;;;20.70;1.00;;;;;;5076464;28;20419;-53
2023/07/20 00:51:01;;;;;;;0.80;0.40;;;20.80;1.00;;;;;;5075963;28;20420;-52
2023/07/20 00:53:30;;;;;;;0.77;0.40;;;20.70;1.00;;;;;;5074882;28;20431;-55
2023/07/20 00:55:57;;;;;;;0.70;0.40;;;20.70;1.00;;;;;;5075386;28;20435;-56
2023/07/20 00:58:25;;;;;;;1.30;0.40;;;20.80;1.00;;;;;;5076256;28;20843;-51
2023/07/20 01:00:52;;;;;;;0.70;0.45;;;20.90;1.00;;;;;;5076102;28;20484;-49
2023/07/20 01:03:19;;;;;;;0.80;0.50;;;20.80;1.00;;;;;;5075239;28;20519;-55
2023/07/20 01:05:55;;;;;;;1.90;0.60;;;20.80;1.00;;;;;;5075718;28;20441;-54
2023/07/20 01:08:28;;;;;;;1.60;0.40;;;20.70;1.00;;;;;;5076214;28;20427;-52
2023/07/20 01:11:03;;;;;;;1.08;0.45;;;20.60;1.00;;;;;;5075947;28;20424;-55
2023/07/20 01:13:31;;;;;;;1.00;0.40;;;20.40;1.00;;;;;;5075172;28;20438;-56
2023/07/20 01:16:01;;;;;;;0.70;0.40;;;20.30;1.00;;;;;;5075128;28;20432;-56
2023/07/20 01:18:27;;;;;;;0.77;0.50;;;20.40;1.00;;;;;;5075660;28;20831;-55
2023/07/20 01:21:00;;;;;;;1.80;0.40;;;20.50;1.00;;;;;;5075960;28;20446;-51
2023/07/20 01:23:43;;;;;;;1.20;0.50;;;20.60;1.00;;;;;;5075808;28;20439;-53
2023/07/20 01:26:42;;;;;;;0.90;0.40;;;20.50;1.00;;;;;;5074592;28;20435;-51
2023/07/20 01:29:36;;;;;;;0.70;0.45;;;20.50;1.00;;;;;;5074838;28;20557;-58
2023/07/20 01:32:07;;;;;;;0.80;0.50;;;20.50;1.00;;;;;;5074537;28;20439;-54
2023/07/20 01:34:36;;;;;;;1.00;0.40;;;20.50;1.00;;;;;;5075001;28;20454;-53
2023/07/20 01:37:04;;;;;;;1.25;0.47;;;20.50;1.00;;;;;;5074735;28;20942;-54
2023/07/20 01:39:33;;;;;;;1.00;0.40;;;20.50;1.00;;;;;;5075137;28;20419;-53
2023/07/20 01:42:00;;;;;;;1.08;0.40;;;20.50;1.00;;;;;;5075059;28;20426;-55
2023/07/20 01:44:28;;;;;;;1.40;0.43;;;20.40;1.00;;;;;;5074750;28;20457;-55
2023/07/20 01:46:55;;;;;;;0.70;0.40;;;20.40;1.00;;;;;;5074315;28;20711;-55
2023/07/20 01:49:24;;;;;;;1.00;0.50;;;20.30;1.00;;;;;;5074695;28;20839;-53
2023/07/20 01:51:51;;;;;;;0.60;0.32;;;20.30;1.00;;;;;;5074841;28;20738;-53
2023/07/20 01:54:18;;;;;;;0.70;0.40;;;20.20;1.00;;;;;;5073865;28;20424;-55
2023/07/20 01:56:45;;;;;;;0.75;0.47;;;20.10;1.00;;;;;;5073426;28;20431;-54
2023/07/20 01:59:12;;;;;;;1.20;0.50;;;20.00;1.00;;;;;;5073016;28;20462;-55
2023/07/20 02:01:39;;;;;;;0.80;0.40;;;20.10;1.00;;;;;;5072506;28;20438;-52
2023/07/20 02:04:06;;;;;;;1.00;0.50;;;20.10;1.00;;;;;;5072655;28;20438;-53
2023/07/20 02:06:35;;;;;;;1.05;0.50;;;20.00;1.00;;;;;;5073781;28;20423;-54
2023/07/20 02:09:02;;;;;;;0.70;0.40;;;20.00;1.00;;;;;;5074894;28;20435;-55
2023/07/20 02:11:29;;;;;;;0.98;0.43;;;20.00;1.00;;;;;;5074544;28;20423;-51
2023/07/20 02:13:56;;;;;;;0.70;0.50;;;19.90;1.00;;;;;;5074672;28;20442;-48
2023/07/20 02:16:23;;;;;;;0.85;0.50;;;20.00;1.00;;;;;;5074564;28;20648;-51
2023/07/20 02:18:50;;;;;;;1.50;0.50;;;19.90;1.00;;;;;;5075167;28;20838;-50
2023/07/20 02:21:17;;;;;;;0.77;0.40;;;19.90;1.00;;;;;;5074863;28;20431;-53
2023/07/20 02:23:46;;;;;;;0.80;0.50;;;19.90;1.00;;;;;;5074485;28;20496;-55
2023/07/20 02:26:13;;;;;;;1.00;0.50;;;20.00;1.00;;;;;;5074371;28;20785;-55
2023/07/20 02:28:41;;;;;;;0.90;0.50;;;20.10;1.00;;;;;;5074750;28;20839;-54
2023/07/20 02:31:08;;;;;;;1.30;0.50;;;20.00;1.00;;;;;;5074735;28;20865;-53
2023/07/20 02:33:35;;;;;;;0.90;0.50;;;19.80;1.00;;;;;;5074431;28;20477;-54
2023/07/20 02:36:02;;;;;;;1.00;0.50;;;19.70;1.00;;;;;;5074480;28;20420;-51
2023/07/20 02:38:29;;;;;;;0.70;0.40;;;19.80;1.00;;;;;;5074752;28;20859;-53
2023/07/20 02:40:57;;;;;;;0.80;0.47;;;19.80;1.00;;;;;;5075065;28;20526;-55
2023/07/20 02:43:24;;;;;;;0.73;0.50;;;19.80;1.00;;;;;;5074574;28;20432;-55
2023/07/20 02:45:52;;;;;;;0.70;0.40;;;19.70;1.00;;;;;;5074294;28;20431;-55
2023/07/20 02:48:19;;;;;;;0.80;0.50;;;19.70;1.00;;;;;;5074403;28;20426;-54
2023/07/20 02:50:46;;;;;;;0.90;0.40;;;19.70;1.00;;;;;;5074886;28;20428;-54
2023/07/20 02:53:13;;;;;;;0.70;0.43;;;19.70;1.00;;;;;;5074602;28;20436;-55
2023/07/20 02:55:40;;;;;;;0.98;0.40;;;19.70;1.00;;;;;;5074263;28;20860;-53
2023/07/20 02:58:08;;;;;;;0.70;0.40;;;19.60;1.00;;;;;;5074011;28;20427;-56
2023/07/20 03:00:35;;;;;;;1.17;0.45;;;19.50;1.00;;;;;;5074378;28;20439;-53
2023/07/20 03:03:03;;;;;;;0.70;0.40;;;19.60;1.00;;;;;;5074104;28;20419;-55
2023/07/20 03:05:30;;;;;;;0.77;0.40;;;19.70;1.00;;;;;;5075523;28;20434;-56
2023/07/20 03:07:57;;;;;;;0.70;0.50;;;19.60;1.00;;;;;;5077882;28;20438;-50
2023/07/20 03:10:24;;;;;;;0.80;0.50;;;19.60;1.00;;;;;;5078151;28;20428;-48
2023/07/20 03:12:51;;;;;;;0.90;0.40;;;19.50;1.00;;;;;;5078492;28;20473;-50
2023/07/20 03:15:19;;;;;;;0.70;0.40;;;19.50;1.00;;;;;;5078114;28;20423;-54
2023/07/20 03:17:46;;;;;;;0.90;0.40;;;19.40;1.00;;;;;;5077218;28;20867;-51
2023/07/20 03:20:13;;;;;;;0.90;0.50;;;19.40;1.00;;;;;;5077011;28;20474;-52
2023/07/20 03:22:40;;;;;;;0.70;0.45;;;19.50;1.00;;;;;;5077652;28;20431;-54
2023/07/20 03:25:08;;;;;;;0.85;0.50;;;19.50;1.00;;;;;;5076451;28;20854;-51
2023/07/20 03:27:35;;;;;;;0.90;0.45;;;19.50;1.00;;;;;;5076149;28;20489;-53
2023/07/20 03:30:02;;;;;;;0.90;0.40;;;19.50;1.00;;;;;;5076352;28;20427;-50
2023/07/20 03:32:31;;;;;;;0.77;0.40;;;19.60;1.00;;;;;;5076369;28;20424;-54
2023/07/20 03:34:58;;;;;;;1.90;0.50;;;19.50;1.00;;;;;;5076428;28;20431;-52
2023/07/20 03:37:25;;;;;;;0.90;0.50;;;19.50;1.00;;;;;;5077361;28;20427;-51
2023/07/20 03:39:51;;;;;;;0.60;0.40;;;19.50;1.00;;;;;;5077160;28;20537;-52
2023/07/20 03:42:18;;;;;;;1.00;0.50;;;19.50;1.00;;;;;;5077702;28;20428;-51
2023/07/20 03:44:45;;;;;;;0.80;0.50;;;19.50;1.00;;;;;;5077903;28;20442;-51
2023/07/20 03:47:12;;;;;;;1.90;0.50;;;19.40;1.00;;;;;;5077325;28;20428;-52
2023/07/20 03:49:41;;;;;;;1.02;0.47;;;19.30;1.00;;;;;;5077044;28;20500;-53
2023/07/20 03:52:09;;;;;;;1.60;0.50;;;19.30;1.00;;;;;;5077740;28;20428;-53
2023/07/20 03:54:36;;;;;;;0.80;0.60;;;19.10;1.00;;;;;;5077500;28;20451;-53
2023/07/20 03:57:03;;;;;;;1.40;0.50;;;19.00;1.00;;;;;;5077414;28;20839;-54
2023/07/20 03:59:30;;;;;;;0.70;0.40;;;19.00;1.00;;;;;;5077125;28;20435;-53
2023/07/20 04:01:57;;;;;;;0.82;0.50;;;19.00;1.00;;;;;;5076726;28;20888;-50
2023/07/20 04:04:24;;;;;;;0.90;0.40;;;18.90;8.50;;;;;;5076841;28;20427;-55
2023/07/20 04:06:52;;;;;;;0.70;0.40;;;18.80;28.30;;;;;;5076941;28;20416;-52
2023/07/20 04:09:19;;;;;;;0.70;0.40;;;18.90;48.10;;;;;;5077139;28;20423;-53
2023/07/20 04:11:46;;;;;;;1.17;0.40;;;19.00;48.20;;;;;;5077097;28;20839;-51
2023/07/20 04:14:13;;;;;;;0.80;0.50;;;19.00;31.40;;;;;;5076506;28;20439;-57
2023/07/20 04:16:40;;;;;;;1.23;0.50;;;18.90;34.00;;;;;;5075556;28;20427;-57
2023/07/20 04:19:08;;;;;;;1.00;0.50;;;19.00;50.20;;;;;;5075628;28;20426;-57
2023/07/20 04:21:41;;;;;;;1.10;0.90;;;19.00;44.50;;;;;;5075297;28;20514;-54
2023/07/20 04:24:10;;;;;;;0.90;0.40;;;19.10;37.80;;;;;;5076269;28;20510;-56
2023/07/20 04:26:38;;;;;;;1.60;0.40;;;19.10;48.90;;;;;;5074927;28;20427;-59
2023/07/20 04:29:05;;;;;;;0.90;0.40;;;19.10;55.30;;;;;;5075084;28;20419;-58
2023/07/20 04:31:33;;;;;;;1.20;0.50;;;19.10;67.50;;;;;;5075173;28;20915;-59
2023/07/20 04:34:00;;;;;;;0.80;0.50;;;19.10;60.90;;;;;;5075845;28;20739;-59
2023/07/20 04:36:27;;;;;;;0.70;0.50;;;19.20;63.80;;;;;;5076055;28;20450;-58
2023/07/20 04:38:54;;;;;;;1.05;0.40;;;19.20;64.00;;;;;;5076366;28;20851;-59
2023/07/20 04:41:22;;;;;;;1.00;0.50;;;19.20;71.00;;;;;;5074253;28;20473;-58
2023/07/20 04:43:49;;;;;;;0.70;0.40;;;19.30;79.60;;;;;;5075276;28;20439;-60
2023/07/20 04:46:17;;;;;;;0.70;0.40;;;19.40;67.10;;;;;;5075553;28;20431;-59
2023/07/20 04:48:44;;;;;;;0.80;0.47;;;19.50;45.60;;;;;;5075242;28;20419;-58
2023/07/20 04:51:11;;;;;;;0.90;0.43;;;19.50;44.50;;;;;;5076133;28;20431;-59
2023/07/20 04:53:38;;;;;;;1.15;0.50;;;19.60;26.70;;;;;;5074877;28;20462;-58
2023/07/20 04:56:05;;;;;;;0.80;0.50;;;19.60;21.00;;;;;;5073328;28;20934;-57
2023/07/20 04:58:34;;;;;;;1.73;0.40;;;19.50;33.90;;;;;;5074048;28;20431;-57
2023/07/20 05:01:01;;;;;;;1.10;0.50;;;19.50;47.90;;;;;;5074550;28;20843;-57
2023/07/20 05:03:27;;;;;;;0.70;0.40;;;19.60;39.30;;;;;;5074577;28;20432;-57
2023/07/20 05:05:55;;;;;;;0.90;0.50;;;19.60;46.00;;;;;;5065170;28;20439;-58
2023/07/20 05:08:23;;;;;;;1.80;0.50;;;19.70;48.40;;;;;;5075366;28;20470;-57
2023/07/20 05:10:50;;;;;;;1.30;0.60;;;19.70;34.60;;;;;;5073776;28;20513;-58
2023/07/20 05:13:17;;;;;;;0.70;0.40;;;19.70;31.70;;;;;;5074876;28;20523;-57
2023/07/20 05:15:46;;;;;;;1.40;0.50;;;19.70;32.60;;;;;;5074693;28;20431;-57
2023/07/20 05:18:13;;;;;;;0.80;0.40;;;19.90;25.10;;;;;;5073749;28;20415;-57
2023/07/20 05:20:40;;;;;;;0.80;0.40;;;20.10;9.90;;;;;;5071651;28;20464;-57
2023/07/20 05:23:07;;;;;;;1.60;0.50;;;20.10;1.00;;;;;;5073520;28;20851;-57
2023/07/20 05:25:34;;;;;;;1.00;0.43;;;20.20;1.00;;;;;;5073075;28;20643;-57
2023/07/20 05:28:01;;;;;;;0.73;0.47;;;20.20;1.00;;;;;;5074035;28;20712;-58
2023/07/20 05:30:29;;;;;;;0.70;0.40;;;20.10;1.00;;;;;;5073141;28;20415;-58
2023/07/20 05:32:57;;;;;;;1.00;0.50;;;20.00;1.00;;;;;;5072383;28;20534;-58
2023/07/20 05:35:24;;;;;;;1.73;0.50;;;20.00;1.80;;;;;;5073766;28;20431;-57
2023/07/20 05:37:51;;;;;;;0.90;0.50;;;20.10;1.00;;;;;;5073363;28;20847;-57
2023/07/20 05:40:19;;;;;;;0.80;0.40;;;20.20;1.00;;;;;;5072123;28;20703;-57
2023/07/20 05:42:47;;;;;;;0.80;0.40;;;20.10;8.60;;;;;;5073480;28;20427;-57
2023/07/20 05:45:15;;;;;;;0.80;0.50;;;20.00;10.30;;;;;;5072988;28;20463;-51
2023/07/20 05:47:43;;;;;;;0.70;0.40;;;20.00;27.20;;;;;;5072869;28;20485;-55
2023/07/20 05:50:12;;;;;;;0.73;0.40;;;20.10;18.90;;;;;;5072199;28;20504;-55
2023/07/20 05:52:40;;;;;;;0.70;0.40;;;20.20;7.50;;;;;;5070680;28;20442;-54
2023/07/20 05:55:08;;;;;;;1.20;0.40;;;20.30;8.10;;;;;;5072525;28;20456;-54
2023/07/20 05:57:39;;;;;;;1.10;0.50;;;20.30;1.00;;;;;;5072499;28;20419;-52
2023/07/20 06:00:09;;;;;;;0.90;0.40;;;20.10;1.00;;;;;;5070643;28;20427;-57
2023/07/20 06:02:36;;;;;;;0.82;0.40;;;20.20;13.80;;;;;;5069408;28;20441;-57
2023/07/20 06:05:03;;;;;;;0.85;0.40;;;20.50;6.90;;;;;;5069369;28;20504;-56
2023/07/20 06:07:31;;;;;;;1.63;0.50;;;20.60;1.00;;;;;;5070882;28;20530;-58
2023/07/20 06:09:59;;;;;;;0.73;0.40;;;20.70;1.00;;;;;;5067796;28;20443;-56
2023/07/20 06:12:26;;;;;;;0.80;0.50;;;20.90;1.00;;;;;;5057911;28;20739;-56
2023/07/20 06:14:53;;;;;;;0.90;0.50;;;21.10;1.00;;;;;;5070318;28;20446;-56
2023/07/20 06:17:20;;;;;;;1.00;0.50;;;20.90;1.00;;;;;;5071280;28;20442;-57
2023/07/20 06:19:47;;;;;;;1.50;0.50;;;20.80;1.00;;;;;;5070745;28;20916;-56
2023/07/20 06:22:15;;;;;;;1.13;0.43;;;20.80;1.00;;;;;;5068044;28;20439;-57
2023/07/20 06:24:44;;;;;;;0.85;0.50;;;20.60;1.00;;;;;;5071569;28;20419;-58
2023/07/20 06:27:12;;;;;;;1.10;0.40;;;20.80;1.00;;;;;;5073033;28;20515;-58
2023/07/20 06:29:39;;;;;;;0.70;0.40;;;21.00;1.00;;;;;;5071944;28;20427;-55
2023/07/20 06:32:07;;;;;;;0.80;0.50;;;21.00;1.00;;;;;;5070453;28;20435;-58
2023/07/20 06:34:38;;;;;;;0.60;0.40;;;20.80;1.00;;;;;;5070709;28;20743;-57
2023/07/20 06:37:05;;;;;;;0.70;0.40;;;20.60;1.00;;;;;;5067092;28;20459;-56
2023/07/20 06:39:32;;;;;;;1.13;0.40;;;20.60;1.20;;;;;;5063068;28;20843;-55
2023/07/20 06:42:01;;;;;;;1.93;0.40;;;20.70;1.00;;;;;;5071346;28;20419;-55
2023/07/20 06:44:28;;;;;;;1.50;0.40;;;20.70;2.10;;;;;;5071456;28;20862;-55
2023/07/20 06:46:55;;;;;;;1.00;0.40;;;20.90;1.00;;;;;;5065714;28;20438;-54
2023/07/20 06:49:26;;;;;;;0.90;0.40;;;20.90;1.00;;;;;;5068465;28;20443;-55
2023/07/20 06:51:53;;;;;;;0.80;0.40;;;21.10;1.00;;;;;;5069737;28;20549;-54
2023/07/20 06:54:20;;;;;;;1.08;0.40;;;21.30;1.00;;;;;;5073850;28;20507;-53
2023/07/20 06:56:47;;;;;;;1.10;0.40;;;21.30;1.00;;;;;;5071910;28;20855;-57
2023/07/20 06:59:16;;;;;;;0.68;0.40;;;21.30;1.00;;;;;;5072047;28;20528;-56
2023/07/20 07:01:43;;;;;;;0.70;0.40;;;21.30;1.00;;;;;;5068186;28;20435;-56
2023/07/20 07:04:10;;;;;;;0.85;0.50;;;21.20;1.00;;;;;;5060531;28;20444;-55
2023/07/20 07:06:37;;;;;;;1.50;0.50;;;21.30;1.00;;;;;;5071034;28;20435;-56
2023/07/20 07:09:05;;;;;;;1.30;0.40;;;21.20;1.00;;;;;;5073368;28;20426;-56
2023/07/20 07:11:32;;;;;;;1.02;0.50;;;21.10;1.00;;;;;;5064823;28;20448;-56
2023/07/20 07:13:59;;;;;;;1.40;0.50;;;21.40;1.00;;;;;;5070560;28;20447;-56
2023/07/20 07:16:27;;;;;;;0.90;0.40;;;21.40;1.00;;;;;;5070560;28;20488;-55
2023/07/20 07:18:55;;;;;;;0.90;0.50;;;21.70;1.00;;;;;;5073718;28;20444;-56
2023/07/20 07:21:22;;;;;;;0.90;0.50;;;21.50;1.00;;;;;;5074498;28;20847;-56
2023/07/20 07:23:49;;;;;;;0.85;0.50;;;21.30;1.00;;;;;;5073877;28;20484;-56
2023/07/20 07:26:16;;;;;;;1.45;0.40;;;21.30;1.00;;;;;;5074191;28;20508;-55
2023/07/20 07:28:43;;;;;;;1.10;0.50;;;21.40;1.00;;;;;;5074333;28;20432;-55
2023/07/20 07:31:10;;;;;;;1.52;0.40;;;21.50;1.00;;;;;;5074722;28;20462;-55
2023/07/20 07:33:39;;;;;;;0.80;0.40;;;21.60;1.00;;;;;;5073609;28;20414;-54
2023/07/20 07:36:06;;;;;;;0.88;0.40;;;21.60;1.00;;;;;;5071418;28;20435;-56
2023/07/20 07:38:33;;;;;;;0.90;0.40;;;21.70;1.00;;;;;;5071502;28;20462;-56
2023/07/20 07:41:00;;;;;;;0.90;0.50;;;21.80;1.00;;;;;;5073554;28;20497;-54
2023/07/20 07:43:27;;;;;;;1.20;0.50;;;21.90;1.00;;;;;;5069134;28;20435;-55
2023/07/20 07:45:55;;;;;;;1.00;0.50;;;21.80;1.00;;;;;;5069460;28;20450;-57
2023/07/20 07:48:25;;;;;;;0.90;0.50;;;21.70;1.00;;;;;;5074420;28;20419;-57
2023/07/20 07:50:54;;;;;;;1.10;0.50;;;21.80;1.00;;;;;;5071591;28;20761;-57
2023/07/20 07:53:21;;;;;;;0.60;0.40;;;21.70;1.00;;;;;;5072785;28;20446;-57
2023/07/20 07:55:49;;;;;;;0.90;0.40;;;21.90;1.00;;;;;;5069680;28;20813;-57
2023/07/20 07:58:16;;;;;;;1.40;0.40;;;22.10;1.00;;;;;;5068511;28;20439;-51
2023/07/20 08:00:43;;;;;;;0.70;0.45;;;22.20;1.00;;;;;;5073796;28;20443;-56
2023/07/20 08:03:10;;;;;;;1.50;0.47;;;22.20;1.00;;;;;;5070207;28;20928;-57
2023/07/20 08:05:37;;;;;;;1.48;0.50;;;22.40;1.00;;;;;;5070325;28;21173;-59
2023/07/20 08:08:06;;;;;;;1.45;0.50;;;22.40;1.00;;;;;;5070939;28;20521;-58
2023/07/20 08:10:33;;;;;;;0.70;0.40;;;22.50;1.00;;;;;;5074110;28;20431;-58
2023/07/20 08:13:00;;;;;;;2.70;0.40;;;22.70;1.00;;;;;;5072990;28;20490;-58
2023/07/20 08:15:27;;;;;;;1.05;0.40;;;22.90;1.00;;;;;;5065625;28;20440;-59
2023/07/20 08:17:54;;;;;;;0.73;0.40;;;22.90;1.00;;;;;;5055570;28;20769;-58
2023/07/20 08:20:26;;;;;;;1.10;0.50;;;22.90;1.00;;;;;;5069864;28;20443;-59
2023/07/20 08:22:53;;;;;;;0.73;0.50;;;23.10;1.00;;;;;;5071867;28;20484;-59
2023/07/20 08:25:22;;;;;;;0.90;0.50;;;23.10;1.00;;;;;;5069006;28;20753;-59
2023/07/20 08:27:49;;;;;;;0.80;0.40;;;23.30;1.00;;;;;;5070790;28;20435;-61
2023/07/20 08:30:16;;;;;;;0.90;0.50;;;23.40;1.00;;;;;;5070753;28;20864;-58
2023/07/20 08:32:43;;;;;;;0.80;0.50;;;23.20;1.00;;;;;;5073553;28;20434;-58
2023/07/20 08:35:10;;;;;;;0.90;0.50;;;23.00;1.00;;;;;;5070432;28;20445;-59
2023/07/20 08:37:37;;;;;;;1.30;0.50;;;23.10;1.00;;;;;;5066255;28;20439;-59
2023/07/20 08:40:08;;;;;;;1.00;0.40;;;23.00;1.00;;;;;;5075144;28;20431;-59
2023/07/20 08:42:38;;;;;;;0.67;0.40;;;23.30;1.00;;;;;;5071925;28;20446;-59
2023/07/20 08:45:09;;;;;;;0.70;0.40;;;23.50;1.00;;;;;;5070691;28;20442;-59
2023/07/20 08:47:37;;;;;;;0.90;0.50;;;23.40;1.00;;;;;;5071834;28;20466;-59
2023/07/20 08:50:06;;;;;;;0.70;0.50;;;23.70;1.00;;;;;;5068762;28;20509;-58
2023/07/20 08:52:35;;;;;;;0.70;0.40;;;23.40;1.00;;;;;;5073024;28;20680;-57
2023/07/20 08:55:03;;;;;;;0.70;0.40;;;23.30;1.00;;;;;;5074232;28;20522;-60
2023/07/20 08:57:33;;;;;;;0.70;0.40;;;23.40;1.00;;;;;;5065128;28;20859;-60
2023/07/20 09:00:06;;;;;;;0.70;0.40;;;23.40;1.00;;;;;;5070765;28;20432;-59
2023/07/20 09:02:39;;;;;;;1.00;0.40;;;23.40;1.00;;;;;;5063626;28;20440;-60
2023/07/20 09:05:07;;;;;;;1.30;0.40;;;23.50;1.00;;;;;;5071262;28;20439;-60
2023/07/20 09:07:36;;;;;;;1.00;0.50;;;23.80;1.00;;;;;;5067950;28;20485;-60
2023/07/20 09:10:05;;;;;;;0.90;0.40;;;23.90;1.00;;;;;;5069895;28;20444;-60
2023/07/20 09:12:33;;;;;;;0.90;0.40;;;24.30;1.00;;;;;;5066032;28;20423;-58
2023/07/20 09:15:02;;;;;;;0.77;0.50;;;24.20;1.00;;;;;;5068023;28;20820;-59
2023/07/20 09:17:29;;;;;;;0.60;0.40;;;24.00;1.00;;;;;;5067626;28;20451;-59
2023/07/20 09:19:56;;;;;;;0.70;0.40;;;24.00;1.00;;;;;;5069569;28;20439;-59
2023/07/20 09:22:30;;;;;;;0.70;0.40;;;24.20;1.00;;;;;;5068652;28;20504;-59
2023/07/20 09:24:57;;;;;;;1.02;0.50;;;24.20;1.00;;;;;;5067692;28;20503;-58
2023/07/20 09:27:30;;;;;;;0.80;0.50;;;24.50;1.00;;;;;;5068349;28;21906;-59
2023/07/20 09:29:58;;;;;;;0.85;0.40;;;24.50;1.00;;;;;;5053385;28;20509;-59
2023/07/20 09:32:26;;;;;;;0.70;0.57;;;24.70;1.00;;;;;;5060310;28;20444;-59
2023/07/20 09:34:53;;;;;;;0.60;0.30;;;24.60;1.00;;;;;;5069342;28;20462;-59
2023/07/20 09:37:27;;;;;;;0.80;0.50;;;24.30;1.00;;;;;;5057205;28;20905;-59
2023/07/20 09:39:55;;;;;;;0.90;0.40;;;24.10;1.00;;;;;;5060715;28;20430;-59
2023/07/20 09:42:25;;;;;;;0.80;0.50;;;23.90;1.00;;;;;;5061178;28;20431;-59
2023/07/20 09:44:52;;;;;;;1.00;0.40;;;24.20;1.00;;;;;;5070685;28;20439;-59
2023/07/20 09:47:24;;;;;;;0.65;0.40;;;24.40;1.00;;;;;;5057529;28;20433;-59
2023/07/20 09:49:59;;;;;;;0.63;0.50;;;24.40;1.00;;;;;;5054434;28;20969;-60
2023/07/20 09:52:30;;;;;;;1.67;0.50;;;24.80;1.00;;;;;;5065158;28;21431;-59
2023/07/20 09:54:59;;;;;;;1.08;0.40;;;25.00;1.00;;;;;;5063827;28;20860;-59
2023/07/20 09:57:27;;;;;;;0.60;0.30;;;24.90;1.00;;;;;;5068027;28;20967;-60
2023/07/20 09:59:54;;;;;;;1.65;0.50;;;24.60;1.00;;;;;;5066043;28;20439;-59
2023/07/20 10:02:26;;;;;;;0.70;0.40;;;24.50;1.00;;;;;;5063842;28;20436;-59
2023/07/20 10:04:56;;;;;;;0.77;0.40;;;24.20;1.00;;;;;;5067339;28;20451;-60
2023/07/20 10:07:27;;;;;;;0.77;0.50;;;24.30;1.00;;;;;;5065756;28;20451;-60
2023/07/20 10:09:56;;;;;;;0.73;0.40;;;24.40;1.00;;;;;;5061714;28;20985;-60
2023/07/20 10:12:24;;;;;;;0.90;0.40;;;24.30;1.00;;;;;;5062696;28;20438;-60
2023/07/20 10:15:01;;;;;;;0.60;0.40;;;24.20;1.00;;;;;;5057563;28;20463;-60
2023/07/20 10:17:28;;;;;;;0.60;0.40;;;24.60;1.00;;;;;;5073645;28;20435;-60
2023/07/20 10:20:02;;;;;;;0.90;0.40;;;24.90;1.00;;;;;;5065507;28;20442;-60
2023/07/20 10:22:35;;;;;;;0.50;0.30;;;25.00;1.00;;;;;;5066661;28;20488;-59
2023/07/20 10:25:04;;;;;;;1.20;0.40;;;24.70;1.00;;;;;;5071490;28;20443;-59
2023/07/20 10:27:31;;;;;;;0.80;0.30;;;24.70;1.00;;;;;;5070851;28;20427;-59
2023/07/20 10:30:01;;;;;;;0.70;0.40;;;24.80;1.00;;;;;;5067047;28;20424;-58
2023/07/20 10:32:30;;;;;;;0.90;0.30;;;24.80;1.00;;;;;;5073415;28;22330;-59
2023/07/20 10:34:58;;;;;;;0.60;0.40;;;25.00;1.00;;;;;;5068274;28;20439;-59
2023/07/20 10:37:48;;;;;;;0.63;0.30;;;25.50;1.00;;;;;;5066779;28;20446;-60
2023/07/20 10:40:34;;;;;;;0.68;0.30;;;25.90;1.00;;;;;;5067846;28;20479;-60
2023/07/20 10:43:03;;;;;;;0.70;0.30;;;26.20;1.00;;;;;;5086512;28;20467;-60
2023/07/20 10:45:49;;;;;;;0.68;0.35;;;26.50;1.00;;;;;;5083467;28;20466;-60
2023/07/20 10:48:19;;;;;;;0.90;0.40;;;27.10;1.00;;;;;;5063359;28;20510;-59
2023/07/20 10:51:02;;;;;;;0.60;0.30;;;27.50;1.00;;;;;;5069534;28;20869;-58
2023/07/20 10:53:29;;;;;;;0.50;0.30;;;27.00;1.00;;;;;;5060917;28;20847;-60
2023/07/20 10:56:08;;;;;;;0.53;0.40;;;26.70;1.00;;;;;;5068861;28;20798;-60
2023/07/20 10:58:35;;;;;;;0.50;0.30;;;26.50;1.00;;;;;;5067981;28;20855;-61
2023/07/20 11:01:04;;;;;;;0.60;0.30;;;26.80;1.00;;;;;;5069903;28;20898;-61
2023/07/20 11:03:32;;;;;;;0.70;0.40;;;27.50;1.00;;;;;;5069501;28;20462;-60
2023/07/20 11:06:21;;;;;;;0.60;0.30;;;27.60;1.00;;;;;;5070506;28;20591;-60
2023/07/20 11:08:48;;;;;;;0.60;0.30;;;27.50;1.00;;;;;;5072480;28;20513;-60
2023/07/20 11:11:33;;;;;;;0.60;0.30;;;26.80;1.00;;;;;;5070486;28;20423;-60
2023/07/20 11:14:01;;;;;;;0.80;0.40;;;26.40;1.00;;;;;;5071453;28;20431;-60
2023/07/20 11:16:35;;;;;;;0.60;0.30;;;26.20;1.00;;;;;;5064683;28;20439;-60
2023/07/20 11:19:03;;;;;;;1.00;0.40;;;25.90;1.00;;;;;;5061011;28;20922;-59
2023/07/20 11:21:37;;;;;;;0.50;0.30;;;26.20;1.00;;;;;;5064919;28;21119;-59
2023/07/20 11:24:06;;;;;;;0.70;0.40;;;27.00;1.00;;;;;;5049959;28;20881;-59
2023/07/20 11:26:42;;;;;;;0.90;0.30;;;27.20;1.00;;;;;;5057282;28;20962;-57
2023/07/20 11:29:09;;;;;;;0.40;0.30;;;27.70;1.00;;;;;;5070866;28;20933;-59
2023/07/20 11:31:37;;;;;;;2.10;0.40;;;27.60;1.00;;;;;;5070989;28;20813;-59
2023/07/20 11:34:05;;;;;;;0.82;0.30;;;27.50;1.00;;;;;;5074990;28;20435;-59
2023/07/20 11:36:34;;;;;;;1.20;0.40;;;27.70;1.00;;;;;;5073503;28;20430;-60
2023/07/20 11:39:04;;;;;;;0.93;0.30;;;27.60;1.00;;;;;;5075590;28;20427;-60
2023/07/20 11:41:32;;;;;;;1.10;0.30;;;27.20;1.00;;;;;;5087402;28;20701;-60
2023/07/20 11:43:59;;;;;;;1.20;0.40;;;27.20;1.00;;;;;;5094336;28;20811;-59
2023/07/20 11:46:26;;;;;;;0.60;0.30;;;27.40;1.00;;;;;;5089549;28;20423;-59
2023/07/20 11:48:58;;;;;;;0.70;0.30;;;27.10;1.00;;;;;;5093278;28;20479;-59
2023/07/20 11:51:25;;;;;;;0.90;0.35;;;27.70;1.00;;;;;;5089231;28;20522;-59
2023/07/20 11:53:54;;;;;;;1.00;0.30;;;28.30;1.00;;;;;;5093467;28;21049;-58
2023/07/20 11:56:21;;;;;;;0.80;0.30;;;28.40;1.00;;;;;;5069062;28;20442;-58
2023/07/20 11:58:48;;;;;;;2.40;0.30;;;28.40;1.00;;;;;;5062672;28;20499;-59
2023/07/20 12:01:15;;;;;;;1.80;0.70;;;28.10;1.00;;;;;;5058298;28;20423;-58
2023/07/20 12:03:44;;;;;;;0.60;0.30;;;28.30;1.00;;;;;;5073423;28;20416;-59
2023/07/20 12:06:11;;;;;;;0.50;0.30;;;28.40;1.00;;;;;;5073073;28;20420;-58
2023/07/20 12:08:43;;;;;;;0.70;0.30;;;29.00;1.00;;;;;;5089708;28;20417;-59
2023/07/20 12:11:12;;;;;;;0.57;0.30;;;29.10;1.00;;;;;;5075997;28;20461;-60
2023/07/20 12:13:42;;;;;;;0.70;0.30;;;29.10;1.00;;;;;;5072468;28;20442;-58
2023/07/20 12:16:14;;;;;;;0.50;0.30;;;29.10;1.00;;;;;;5071642;28;20743;-58
2023/07/20 12:18:41;;;;;;;0.50;0.30;;;29.10;1.00;;;;;;5068419;28;20474;-59
2023/07/20 12:21:08;;;;;;;0.45;0.30;;;29.10;1.00;;;;;;5068372;28;20751;-58
2023/07/20 12:23:39;;;;;;;0.50;0.30;;;28.60;1.00;;;;;;5071967;28;20527;-58
2023/07/20 12:26:11;;;;;;;0.85;0.40;;;28.00;1.00;;;;;;5053212;28;20464;-57
2023/07/20 12:28:41;;;;;;;0.50;0.28;;;28.40;1.00;;;;;;5073004;28;20489;-58
2023/07/20 12:31:09;;;;;;;0.50;0.30;;;28.70;1.00;;;;;;5073985;28;20772;-57
2023/07/20 12:33:36;;;;;;;0.90;0.30;;;28.90;1.00;;;;;;5073715;28;20428;-58
2023/07/20 12:36:04;;;;;;;0.50;0.30;;;28.70;1.00;;;;;;5071116;28;20924;-58
2023/07/20 12:38:31;;;;;;;0.80;0.30;;;28.90;1.00;;;;;;5069348;28;20489;-55
2023/07/20 12:41:00;;;;;;;0.60;0.30;;;29.10;1.00;;;;;;5074277;28;20443;-58
2023/07/20 12:43:29;;;;;;;0.60;0.30;;;29.10;1.00;;;;;;5073467;28;20534;-58
2023/07/20 12:45:56;;;;;;;0.60;0.30;;;28.80;1.00;;;;;;5062716;28;20536;-57
2023/07/20 12:48:23;;;;;;;0.60;0.30;;;28.60;1.00;;;;;;5071292;28;20778;-58
2023/07/20 12:50:50;;;;;;;0.50;0.30;;;28.40;1.00;;;;;;5071386;28;20431;-57
2023/07/20 12:53:17;;;;;;;0.50;0.30;;;28.30;1.00;;;;;;5072227;28;20435;-55
2023/07/20 12:55:45;;;;;;;0.50;0.20;;;28.20;1.00;;;;;;5071387;28;20443;-56
2023/07/20 12:58:14;;;;;;;0.88;0.30;;;28.30;1.00;;;;;;5070071;28;20426;-57
2023/07/20 13:00:42;;;;;;;1.55;0.30;;;28.10;1.00;;;;;;5089182;28;20483;-57
2023/07/20 13:03:09;;;;;;;1.30;0.40;;;27.80;1.00;;;;;;5077671;28;20442;-57